sensor_id;sensor_type;location;lat;lon;timestamp;pressure;altitude;pressure_sealevel;temperature;humidity
51147;BME280;37207;53.060;18.726;2023-09-12T00:01:06;100407.62;;;17.44;75.00
51147;BME280;37207;53.060;18.726;2023-09-12T00:03:34;100404.27;;;17.41;75.29
51147;BME280;37207;53.060;18.726;2023-09-12T00:06:02;100407.59;;;17.39;75.40
51147;BME280;37207;53.060;18.726;2023-09-12T00:08:30;100408.86;;;17.37;75.61
51147;BME280;37207;53.060;18.726;2023-09-12T00:11:05;100404.02;;;17.32;75.62
51147;BME280;37207;53.060;18.726;2023-09-12T00:13:37;100405.91;;;17.30;75.79
51147;BME280;37207;53.060;18.726;2023-09-12T00:16:04;100408.77;;;17.29;75.88
51147;BME280;37207;53.060;18.726;2023-09-12T00:18:32;100408.83;;;17.28;75.91
51147;BME280;37207;53.060;18.726;2023-09-12T00:21:01;100406.36;;;17.28;75.96
51147;BME280;37207;53.060;18.726;2023-09-12T00:23:27;100403.22;;;17.24;75.92
51147;BME280;37207;53.060;18.726;2023-09-12T00:25:54;100405.10;;;17.21;75.87
51147;BME280;37207;53.060;18.726;2023-09-12T00:28:21;100403.05;;;17.16;75.96
51147;BME280;37207;53.060;18.726;2023-09-12T00:30:47;100407.27;;;17.12;76.15
51147;BME280;37207;53.060;18.726;2023-09-12T00:33:14;100402.36;;;17.11;76.31
51147;BME280;37207;53.060;18.726;2023-09-12T00:35:41;100402.45;;;17.12;76.26
51147;BME280;37207;53.060;18.726;2023-09-12T00:38:09;100403.59;;;17.14;76.29
51147;BME280;37207;53.060;18.726;2023-09-12T00:40:36;100405.65;;;17.12;76.31
51147;BME280;37207;53.060;18.726;2023-09-12T00:43:04;100405.67;;;17.11;76.31
51147;BME280;37207;53.060;18.726;2023-09-12T00:45:31;100409.55;;;17.09;76.30
51147;BME280;37207;53.060;18.726;2023-09-12T00:48:01;100410.34;;;17.08;76.28
51147;BME280;37207;53.060;18.726;2023-09-12T00:50:30;100405.65;;;17.02;76.13
51147;BME280;37207;53.060;18.726;2023-09-12T00:52:58;100403.97;;;16.97;75.97
51147;BME280;37207;53.060;18.726;2023-09-12T00:55:26;100404.40;;;16.93;76.11
51147;BME280;37207;53.060;18.726;2023-09-12T01:09:47;100398.55;;;17.32;76.82
51147;BME280;37207;53.060;18.726;2023-09-12T01:12:14;100397.64;;;17.32;76.35
51147;BME280;37207;53.060;18.726;2023-09-12T01:14:41;100394.60;;;17.24;76.24
51147;BME280;37207;53.060;18.726;2023-09-12T01:17:07;100395.16;;;17.16;76.31
51147;BME280;37207;53.060;18.726;2023-09-12T01:19:34;100395.59;;;17.09;76.36
51147;BME280;37207;53.060;18.726;2023-09-12T01:24:51;100392.23;;;16.97;76.63
51147;BME280;37207;53.060;18.726;2023-09-12T01:27:45;100391.23;;;16.93;76.73
51147;BME280;37207;53.060;18.726;2023-09-12T01:30:17;100390.29;;;16.88;76.94
51147;BME280;37207;53.060;18.726;2023-09-12T01:32:44;100389.65;;;16.84;76.97
51147;BME280;37207;53.060;18.726;2023-09-12T01:35:11;100393.21;;;16.80;77.08
51147;BME280;37207;53.060;18.726;2023-09-12T01:37:37;100391.88;;;16.77;77.08
51147;BME280;37207;53.060;18.726;2023-09-12T01:40:05;100387.16;;;16.73;77.02
51147;BME280;37207;53.060;18.726;2023-09-12T01:42:38;100387.06;;;16.69;77.11
51147;BME280;37207;53.060;18.726;2023-09-12T01:45:09;100390.14;;;16.67;77.08
51147;BME280;37207;53.060;18.726;2023-09-12T01:47:38;100388.06;;;16.65;77.24
51147;BME280;37207;53.060;18.726;2023-09-12T01:50:08;100385.52;;;16.62;77.31
51147;BME280;37207;53.060;18.726;2023-09-12T01:52:36;100390.15;;;16.60;77.39
51147;BME280;37207;53.060;18.726;2023-09-12T01:55:03;100392.05;;;16.55;77.38
51147;BME280;37207;53.060;18.726;2023-09-12T01:57:31;100391.72;;;16.50;77.47
51147;BME280;37207;53.060;18.726;2023-09-12T01:59:59;100393.02;;;16.48;77.62
51147;BME280;37207;53.060;18.726;2023-09-12T02:02:25;100396.30;;;16.46;77.72
51147;BME280;37207;53.060;18.726;2023-09-12T02:05:09;100394.10;;;16.45;77.82
51147;BME280;37207;53.060;18.726;2023-09-12T02:07:41;100395.69;;;16.44;77.85
51147;BME280;37207;53.060;18.726;2023-09-12T02:10:08;100400.91;;;16.46;78.07
51147;BME280;37207;53.060;18.726;2023-09-12T02:12:36;100401.79;;;16.45;77.95
51147;BME280;37207;53.060;18.726;2023-09-12T02:15:03;100399.41;;;16.42;77.88
51147;BME280;37207;53.060;18.726;2023-09-12T02:17:30;100395.66;;;16.39;77.68
51147;BME280;37207;53.060;18.726;2023-09-12T02:19:57;100399.71;;;16.35;77.84
51147;BME280;37207;53.060;18.726;2023-09-12T02:22:23;100396.42;;;16.31;77.89
51147;BME280;37207;53.060;18.726;2023-09-12T02:24:50;100399.84;;;16.30;78.09
51147;BME280;37207;53.060;18.726;2023-09-12T02:27:16;100398.04;;;16.27;78.05
51147;BME280;37207;53.060;18.726;2023-09-12T02:29:43;100401.15;;;16.27;78.37
51147;BME280;37207;53.060;18.726;2023-09-12T02:32:09;100397.14;;;16.26;78.37
51147;BME280;37207;53.060;18.726;2023-09-12T02:34:36;100397.96;;;16.25;78.29
51147;BME280;37207;53.060;18.726;2023-09-12T02:37:03;100402.41;;;16.22;78.28
51147;BME280;37207;53.060;18.726;2023-09-12T02:39:29;100403.55;;;16.20;78.31
51147;BME280;37207;53.060;18.726;2023-09-12T02:41:56;100399.46;;;16.19;78.41
51147;BME280;37207;53.060;18.726;2023-09-12T02:44:22;100403.66;;;16.19;78.40
51147;BME280;37207;53.060;18.726;2023-09-12T02:46:50;100407.70;;;16.20;78.50
51147;BME280;37207;53.060;18.726;2023-09-12T02:49:17;100408.51;;;16.21;78.45
51147;BME280;37207;53.060;18.726;2023-09-12T02:51:45;100407.89;;;16.18;78.33
51147;BME280;37207;53.060;18.726;2023-09-12T02:54:11;100407.80;;;16.14;78.26
51147;BME280;37207;53.060;18.726;2023-09-12T02:56:38;100414.70;;;16.09;78.31
51147;BME280;37207;53.060;18.726;2023-09-12T03:09:14;100411.72;;;16.35;78.93
51147;BME280;37207;53.060;18.726;2023-09-12T03:11:43;100408.80;;;16.31;78.37
51147;BME280;37207;53.060;18.726;2023-09-12T03:14:09;100408.59;;;16.28;78.29
51147;BME280;37207;53.060;18.726;2023-09-12T03:16:36;100410.60;;;16.24;78.22
51147;BME280;37207;53.060;18.726;2023-09-12T03:19:04;100409.56;;;16.18;78.40
51147;BME280;37207;53.060;18.726;2023-09-12T03:21:31;100406.02;;;16.14;78.74
51147;BME280;37207;53.060;18.726;2023-09-12T03:23:58;100407.40;;;16.10;78.71
51147;BME280;37207;53.060;18.726;2023-09-12T03:26:24;100407.68;;;16.05;78.71
51147;BME280;37207;53.060;18.726;2023-09-12T03:28:51;100406.14;;;15.98;78.62
51147;BME280;37207;53.060;18.726;2023-09-12T03:31:18;100406.88;;;15.92;78.70
51147;BME280;37207;53.060;18.726;2023-09-12T03:33:45;100412.27;;;15.88;78.91
51147;BME280;37207;53.060;18.726;2023-09-12T03:36:17;100412.74;;;15.86;79.02
51147;BME280;37207;53.060;18.726;2023-09-12T03:38:44;100409.67;;;15.85;79.20
51147;BME280;37207;53.060;18.726;2023-09-12T03:41:11;100414.35;;;15.83;79.16
51147;BME280;37207;53.060;18.726;2023-09-12T03:43:38;100414.46;;;15.82;79.32
51147;BME280;37207;53.060;18.726;2023-09-12T03:46:42;100417.17;;;15.80;79.24
51147;BME280;37207;53.060;18.726;2023-09-12T03:49:08;100418.10;;;15.78;79.36
51147;BME280;37207;53.060;18.726;2023-09-12T03:51:35;100420.59;;;15.78;79.28
51147;BME280;37207;53.060;18.726;2023-09-12T03:54:04;100419.14;;;15.77;79.10
51147;BME280;37207;53.060;18.726;2023-09-12T03:56:32;100419.74;;;15.74;79.25
51147;BME280;37207;53.060;18.726;2023-09-12T03:58:58;100418.70;;;15.73;79.48
51147;BME280;37207;53.060;18.726;2023-09-12T04:01:27;100417.33;;;15.69;79.41
51147;BME280;37207;53.060;18.726;2023-09-12T04:03:54;100414.31;;;15.67;79.60
51147;BME280;37207;53.060;18.726;2023-09-12T04:06:21;100415.29;;;15.65;79.67
51147;BME280;37207;53.060;18.726;2023-09-12T04:08:47;100417.23;;;15.63;79.74
51147;BME280;37207;53.060;18.726;2023-09-12T04:11:14;100419.95;;;15.60;79.74
51147;BME280;37207;53.060;18.726;2023-09-12T04:13:41;100417.11;;;15.58;79.77
51147;BME280;37207;53.060;18.726;2023-09-12T04:16:07;100416.40;;;15.58;79.96
51147;BME280;37207;53.060;18.726;2023-09-12T04:18:34;100415.09;;;15.57;79.90
51147;BME280;37207;53.060;18.726;2023-09-12T04:21:07;100416.02;;;15.56;80.08
51147;BME280;37207;53.060;18.726;2023-09-12T04:23:34;100416.02;;;15.55;80.19
51147;BME280;37207;53.060;18.726;2023-09-12T04:26:01;100417.88;;;15.54;80.24
51147;BME280;37207;53.060;18.726;2023-09-12T04:28:30;100418.45;;;15.55;80.28
51147;BME280;37207;53.060;18.726;2023-09-12T04:31:01;100419.05;;;15.57;80.27
51147;BME280;37207;53.060;18.726;2023-09-12T04:33:29;100416.25;;;15.58;80.29
51147;BME280;37207;53.060;18.726;2023-09-12T04:35:58;100415.08;;;15.58;80.17
51147;BME280;37207;53.060;18.726;2023-09-12T04:38:26;100414.11;;;15.59;80.20
51147;BME280;37207;53.060;18.726;2023-09-12T04:40:56;100415.48;;;15.60;80.22
51147;BME280;37207;53.060;18.726;2023-09-12T04:43:23;100412.58;;;15.64;80.17
51147;BME280;37207;53.060;18.726;2023-09-12T04:45:50;100413.25;;;15.66;80.21
51147;BME280;37207;53.060;18.726;2023-09-12T04:48:17;100419.02;;;15.66;80.14
51147;BME280;37207;53.060;18.726;2023-09-12T04:50:44;100413.55;;;15.68;80.26
51147;BME280;37207;53.060;18.726;2023-09-12T04:53:11;100415.25;;;15.69;80.28
51147;BME280;37207;53.060;18.726;2023-09-12T04:55:38;100416.80;;;15.71;80.40
51147;BME280;37207;53.060;18.726;2023-09-12T04:58:05;100420.95;;;15.72;80.39
51147;BME280;37207;53.060;18.726;2023-09-12T05:00:33;100424.77;;;15.73;80.29
51147;BME280;37207;53.060;18.726;2023-09-12T05:03:01;100424.12;;;15.75;80.39
51147;BME280;37207;53.060;18.726;2023-09-12T05:05:28;100426.23;;;15.80;80.71
51147;BME280;37207;53.060;18.726;2023-09-12T05:07:54;100427.87;;;15.83;80.62
51147;BME280;37207;53.060;18.726;2023-09-12T05:10:21;100426.16;;;15.87;80.77
51147;BME280;37207;53.060;18.726;2023-09-12T05:12:48;100424.39;;;15.91;80.95
51147;BME280;37207;53.060;18.726;2023-09-12T05:15:14;100426.42;;;15.95;81.32
51147;BME280;37207;53.060;18.726;2023-09-12T05:17:41;100430.95;;;15.99;81.21
51147;BME280;37207;53.060;18.726;2023-09-12T05:20:08;100433.78;;;16.04;81.27
51147;BME280;37207;53.060;18.726;2023-09-12T05:22:35;100431.21;;;16.10;81.43
51147;BME280;37207;53.060;18.726;2023-09-12T05:25:01;100432.71;;;16.15;81.54
51147;BME280;37207;53.060;18.726;2023-09-12T05:27:28;100426.82;;;16.19;81.72
51147;BME280;37207;53.060;18.726;2023-09-12T06:43:43;100451.27;;;19.47;78.83
51147;BME280;37207;53.060;18.726;2023-09-12T06:46:10;100454.48;;;19.84;77.61
51147;BME280;37207;53.060;18.726;2023-09-12T06:48:36;100452.48;;;19.90;77.35
51147;BME280;37207;53.060;18.726;2023-09-12T06:51:09;100455.04;;;19.96;76.92
51147;BME280;37207;53.060;18.726;2023-09-12T06:53:36;100453.96;;;20.02;76.61
51147;BME280;37207;53.060;18.726;2023-09-12T06:56:06;100457.19;;;20.08;76.44
51147;BME280;37207;53.060;18.726;2023-09-12T06:58:33;100458.74;;;20.16;76.08
51147;BME280;37207;53.060;18.726;2023-09-12T07:01:06;100463.41;;;20.35;75.52
51147;BME280;37207;53.060;18.726;2023-09-12T07:03:34;100461.77;;;20.49;75.24
51147;BME280;37207;53.060;18.726;2023-09-12T07:06:02;100464.64;;;20.57;74.97
51147;BME280;37207;53.060;18.726;2023-09-12T07:08:32;100463.02;;;20.65;74.56
51147;BME280;37207;53.060;18.726;2023-09-12T07:10:59;100463.86;;;20.73;74.08
51147;BME280;37207;53.060;18.726;2023-09-12T07:13:32;100466.89;;;20.81;73.69
51147;BME280;37207;53.060;18.726;2023-09-12T07:15:59;100470.61;;;20.91;73.58
51147;BME280;37207;53.060;18.726;2023-09-12T07:18:26;100474.65;;;21.03;73.55
51147;BME280;37207;53.060;18.726;2023-09-12T07:21:00;100465.70;;;21.15;73.27
51147;BME280;37207;53.060;18.726;2023-09-12T07:23:28;100467.45;;;21.33;73.02
51147;BME280;37207;53.060;18.726;2023-09-12T07:25:55;100469.38;;;21.63;72.55
51147;BME280;37207;53.060;18.726;2023-09-12T07:28:26;100467.80;;;22.89;71.48
51147;BME280;37207;53.060;18.726;2023-09-12T07:30:56;100467.90;;;24.73;69.16
51147;BME280;37207;53.060;18.726;2023-09-12T07:33:22;100466.45;;;26.71;66.57
51147;BME280;37207;53.060;18.726;2023-09-12T07:35:52;100471.58;;;28.57;63.31
51147;BME280;37207;53.060;18.726;2023-09-12T07:38:20;100476.99;;;30.21;60.14
51147;BME280;37207;53.060;18.726;2023-09-12T07:40:47;100475.38;;;31.64;57.18
51147;BME280;37207;53.060;18.726;2023-09-12T07:43:13;100476.48;;;32.84;53.28
51147;BME280;37207;53.060;18.726;2023-09-12T07:45:40;100482.00;;;33.76;51.46
51147;BME280;37207;53.060;18.726;2023-09-12T07:48:07;100480.36;;;34.71;49.84
51147;BME280;37207;53.060;18.726;2023-09-12T07:50:34;100476.06;;;35.52;47.95
51147;BME280;37207;53.060;18.726;2023-09-12T07:53:01;100465.58;;;36.23;46.34
51147;BME280;37207;53.060;18.726;2023-09-12T07:55:27;100464.13;;;36.72;44.56
51147;BME280;37207;53.060;18.726;2023-09-12T07:57:57;100460.73;;;37.16;42.75
51147;BME280;37207;53.060;18.726;2023-09-12T08:00:24;100461.33;;;37.34;41.85
51147;BME280;37207;53.060;18.726;2023-09-12T08:02:50;100464.27;;;37.46;41.48
51147;BME280;37207;53.060;18.726;2023-09-12T08:05:17;100463.98;;;37.64;40.97
51147;BME280;37207;53.060;18.726;2023-09-12T08:07:45;100463.76;;;37.72;40.53
51147;BME280;37207;53.060;18.726;2023-09-12T08:10:11;100467.91;;;37.66;39.76
51147;BME280;37207;53.060;18.726;2023-09-12T08:12:38;100462.36;;;37.29;39.17
51147;BME280;37207;53.060;18.726;2023-09-12T08:15:05;100462.41;;;36.88;39.88
51147;BME280;37207;53.060;18.726;2023-09-12T08:17:32;100461.50;;;36.46;39.59
51147;BME280;37207;53.060;18.726;2023-09-12T08:19:58;100465.34;;;35.93;39.19
51147;BME280;37207;53.060;18.726;2023-09-12T08:22:25;100471.32;;;35.39;40.09
51147;BME280;37207;53.060;18.726;2023-09-12T08:24:51;100467.24;;;35.08;40.83
51147;BME280;37207;53.060;18.726;2023-09-12T08:27:18;100461.80;;;34.88;40.87
51147;BME280;37207;53.060;18.726;2023-09-12T08:29:44;100460.66;;;34.73;40.83
51147;BME280;37207;53.060;18.726;2023-09-12T08:32:13;100463.41;;;34.54;40.63
51147;BME280;37207;53.060;18.726;2023-09-12T08:34:40;100466.27;;;34.42;41.28
51147;BME280;37207;53.060;18.726;2023-09-12T08:37:06;100466.70;;;34.35;40.70
51147;BME280;37207;53.060;18.726;2023-09-12T08:39:41;100469.46;;;34.10;40.15
51147;BME280;37207;53.060;18.726;2023-09-12T08:42:16;100472.17;;;33.85;39.26
51147;BME280;37207;53.060;18.726;2023-09-12T08:44:42;100469.58;;;33.46;40.22
51147;BME280;37207;53.060;18.726;2023-09-12T08:47:11;100466.88;;;33.36;40.58
51147;BME280;37207;53.060;18.726;2023-09-12T08:49:38;100471.34;;;33.33;40.20
51147;BME280;37207;53.060;18.726;2023-09-12T08:52:05;100471.80;;;33.34;40.34
51147;BME280;37207;53.060;18.726;2023-09-12T08:54:32;100471.17;;;33.39;40.18
51147;BME280;37207;53.060;18.726;2023-09-12T08:57:01;100468.84;;;33.38;40.09
51147;BME280;37207;53.060;18.726;2023-09-12T08:59:31;100473.04;;;33.47;40.47
51147;BME280;37207;53.060;18.726;2023-09-12T09:02:00;100470.24;;;33.48;39.55
51147;BME280;37207;53.060;18.726;2023-09-12T09:04:30;100472.91;;;33.40;39.95
51147;BME280;37207;53.060;18.726;2023-09-12T09:07:01;100471.67;;;33.52;40.05
51147;BME280;37207;53.060;18.726;2023-09-12T09:09:29;100474.10;;;33.93;39.64
51147;BME280;37207;53.060;18.726;2023-09-12T09:11:56;100470.15;;;35.02;38.25
51147;BME280;37207;53.060;18.726;2023-09-12T09:14:23;100472.00;;;36.32;35.02
51147;BME280;37207;53.060;18.726;2023-09-12T09:16:50;100467.19;;;37.16;33.83
51147;BME280;37207;53.060;18.726;2023-09-12T09:19:17;100468.64;;;37.60;33.85
51147;BME280;37207;53.060;18.726;2023-09-12T09:21:44;100469.63;;;37.78;33.01
51147;BME280;37207;53.060;18.726;2023-09-12T09:24:13;100472.19;;;37.82;33.40
51147;BME280;37207;53.060;18.726;2023-09-12T09:26:42;100472.58;;;37.92;33.21
51147;BME280;37207;53.060;18.726;2023-09-12T09:29:13;100470.67;;;37.91;33.60
51147;BME280;37207;53.060;18.726;2023-09-12T09:31:41;100464.95;;;37.74;33.06
51147;BME280;37207;53.060;18.726;2023-09-12T09:34:16;100465.63;;;37.50;33.53
51147;BME280;37207;53.060;18.726;2023-09-12T09:36:47;100461.00;;;37.26;33.23
51147;BME280;37207;53.060;18.726;2023-09-12T09:39:19;100458.10;;;37.04;33.23
51147;BME280;37207;53.060;18.726;2023-09-12T09:41:49;100457.94;;;36.87;32.83
51147;BME280;37207;53.060;18.726;2023-09-12T09:44:17;100455.55;;;36.69;33.48
51147;BME280;37207;53.060;18.726;2023-09-12T09:46:44;100452.46;;;36.62;33.86
51147;BME280;37207;53.060;18.726;2023-09-12T09:49:14;100451.30;;;36.61;33.88
51147;BME280;37207;53.060;18.726;2023-09-12T09:51:42;100452.16;;;36.61;33.73
51147;BME280;37207;53.060;18.726;2023-09-12T09:54:12;100447.99;;;36.61;33.51
51147;BME280;37207;53.060;18.726;2023-09-12T09:56:53;100447.19;;;36.73;33.18
51147;BME280;37207;53.060;18.726;2023-09-12T09:59:23;100448.70;;;36.97;32.87
51147;BME280;37207;53.060;18.726;2023-09-12T10:01:52;100446.96;;;37.40;32.49
51147;BME280;37207;53.060;18.726;2023-09-12T10:04:22;100440.52;;;38.16;31.51
51147;BME280;37207;53.060;18.726;2023-09-12T10:06:49;100440.23;;;39.18;30.97
51147;BME280;37207;53.060;18.726;2023-09-12T10:09:16;100442.70;;;40.19;29.52
51147;BME280;37207;53.060;18.726;2023-09-12T10:11:46;100432.77;;;41.12;28.47
51147;BME280;37207;53.060;18.726;2023-09-12T10:14:15;100431.90;;;41.84;27.52
51147;BME280;37207;53.060;18.726;2023-09-12T10:16:48;100427.43;;;42.49;26.73
51147;BME280;37207;53.060;18.726;2023-09-12T10:19:17;100425.84;;;43.21;26.17
51147;BME280;37207;53.060;18.726;2023-09-12T10:22:09;100417.06;;;43.88;25.19
51147;BME280;37207;53.060;18.726;2023-09-12T10:24:36;100417.00;;;44.43;24.12
51147;BME280;37207;53.060;18.726;2023-09-12T10:27:06;100414.11;;;44.89;23.75
51147;BME280;37207;53.060;18.726;2023-09-12T10:29:33;100413.81;;;45.30;23.09
51147;BME280;37207;53.060;18.726;2023-09-12T10:32:00;100413.70;;;45.41;22.51
51147;BME280;37207;53.060;18.726;2023-09-12T10:34:27;100412.13;;;45.38;22.59
51147;BME280;37207;53.060;18.726;2023-09-12T10:36:58;100410.11;;;45.18;22.25
51147;BME280;37207;53.060;18.726;2023-09-12T10:39:27;100411.56;;;44.54;22.31
51147;BME280;37207;53.060;18.726;2023-09-12T10:41:55;100416.85;;;44.13;23.11
51147;BME280;37207;53.060;18.726;2023-09-12T10:44:23;100415.77;;;43.81;23.80
51147;BME280;37207;53.060;18.726;2023-09-12T10:46:51;100410.88;;;43.44;23.10
51147;BME280;37207;53.060;18.726;2023-09-12T10:49:19;100404.84;;;42.65;23.47
51147;BME280;37207;53.060;18.726;2023-09-12T10:51:47;100403.42;;;42.01;24.67
51147;BME280;37207;53.060;18.726;2023-09-12T10:54:16;100403.37;;;41.48;25.25
51147;BME280;37207;53.060;18.726;2023-09-12T10:57:09;100398.05;;;41.01;25.87
51147;BME280;37207;53.060;18.726;2023-09-12T11:00:15;100393.64;;;40.52;26.09
51147;BME280;37207;53.060;18.726;2023-09-12T11:02:42;100397.86;;;40.08;26.59
51147;BME280;37207;53.060;18.726;2023-09-12T11:07:58;100392.77;;;39.75;26.29
51147;BME280;37207;53.060;18.726;2023-09-12T11:10:26;100391.98;;;39.60;26.76
51147;BME280;37207;53.060;18.726;2023-09-12T11:12:56;100392.86;;;39.62;26.55
51147;BME280;37207;53.060;18.726;2023-09-12T11:15:26;100393.95;;;39.47;26.53
51147;BME280;37207;53.060;18.726;2023-09-12T11:18:13;100395.64;;;39.27;26.69
51147;BME280;37207;53.060;18.726;2023-09-12T11:21:00;100393.39;;;38.98;27.18
51147;BME280;37207;53.060;18.726;2023-09-12T11:23:29;100394.11;;;38.82;27.21
51147;BME280;37207;53.060;18.726;2023-09-12T11:26:07;100391.66;;;38.82;26.95
51147;BME280;37207;53.060;18.726;2023-09-12T11:28:36;100392.05;;;38.80;26.89
51147;BME280;37207;53.060;18.726;2023-09-12T11:31:03;100390.96;;;38.83;26.77
51147;BME280;37207;53.060;18.726;2023-09-12T11:33:31;100388.87;;;38.79;26.28
51147;BME280;37207;53.060;18.726;2023-09-12T11:35:58;100389.39;;;38.76;26.71
51147;BME280;37207;53.060;18.726;2023-09-12T11:38:29;100386.98;;;38.71;26.80
51147;BME280;37207;53.060;18.726;2023-09-12T11:40:57;100390.58;;;38.70;26.43
51147;BME280;37207;53.060;18.726;2023-09-12T11:43:26;100388.47;;;38.73;26.56
51147;BME280;37207;53.060;18.726;2023-09-12T11:45:55;100385.29;;;38.96;26.50
51147;BME280;37207;53.060;18.726;2023-09-12T11:48:22;100385.02;;;39.22;26.06
51147;BME280;37207;53.060;18.726;2023-09-12T11:50:51;100385.01;;;39.67;26.21
51147;BME280;37207;53.060;18.726;2023-09-12T11:53:20;100387.02;;;40.21;25.47
51147;BME280;37207;53.060;18.726;2023-09-12T11:55:51;100382.48;;;40.77;25.19
51147;BME280;37207;53.060;18.726;2023-09-12T11:58:19;100385.91;;;41.37;24.51
51147;BME280;37207;53.060;18.726;2023-09-12T12:00:51;100384.48;;;41.86;24.15
51147;BME280;37207;53.060;18.726;2023-09-12T12:03:23;100382.89;;;42.11;23.55
51147;BME280;37207;53.060;18.726;2023-09-12T12:05:51;100384.62;;;42.46;23.11
51147;BME280;37207;53.060;18.726;2023-09-12T12:08:18;100385.52;;;42.67;22.78
51147;BME280;37207;53.060;18.726;2023-09-12T12:10:52;100384.66;;;42.68;22.86
51147;BME280;37207;53.060;18.726;2023-09-12T12:13:20;100379.16;;;42.80;22.40
51147;BME280;37207;53.060;18.726;2023-09-12T12:15:47;100379.90;;;42.81;22.44
51147;BME280;37207;53.060;18.726;2023-09-12T12:18:14;100374.52;;;42.75;22.19
51147;BME280;37207;53.060;18.726;2023-09-12T12:20:41;100371.58;;;42.52;22.72
51147;BME280;37207;53.060;18.726;2023-09-12T12:23:08;100368.10;;;42.61;23.08
51147;BME280;37207;53.060;18.726;2023-09-12T12:25:35;100373.50;;;42.76;22.72
51147;BME280;37207;53.060;18.726;2023-09-12T12:28:03;100371.68;;;42.48;22.40
51147;BME280;37207;53.060;18.726;2023-09-12T12:30:31;100364.91;;;42.15;23.10
51147;BME280;37207;53.060;18.726;2023-09-12T12:33:00;100364.96;;;41.96;23.68
51147;BME280;37207;53.060;18.726;2023-09-12T12:35:27;100360.40;;;41.82;23.52
51147;BME280;37207;53.060;18.726;2023-09-12T12:37:56;100362.95;;;41.71;23.53
51147;BME280;37207;53.060;18.726;2023-09-12T12:40:23;100363.50;;;41.65;24.19
51147;BME280;37207;53.060;18.726;2023-09-12T12:42:50;100366.59;;;41.71;24.10
51147;BME280;37207;53.060;18.726;2023-09-12T12:45:20;100363.59;;;41.83;23.71
51147;BME280;37207;53.060;18.726;2023-09-12T12:47:57;100365.66;;;41.95;23.54
51147;BME280;37207;53.060;18.726;2023-09-12T12:50:24;100359.14;;;41.90;23.45
51147;BME280;37207;53.060;18.726;2023-09-12T12:52:51;100360.59;;;41.94;23.33
51147;BME280;37207;53.060;18.726;2023-09-12T12:55:21;100357.90;;;41.76;23.32
51147;BME280;37207;53.060;18.726;2023-09-12T12:57:48;100357.10;;;41.62;23.78
51147;BME280;37207;53.060;18.726;2023-09-12T13:00:16;100358.02;;;41.50;23.37
51147;BME280;37207;53.060;18.726;2023-09-12T13:02:44;100356.02;;;41.15;23.80
51147;BME280;37207;53.060;18.726;2023-09-12T13:05:21;100351.81;;;40.97;23.61
51147;BME280;37207;53.060;18.726;2023-09-12T13:07:49;100347.17;;;40.66;24.01
51147;BME280;37207;53.060;18.726;2023-09-12T13:10:16;100346.94;;;40.44;23.98
51147;BME280;37207;53.060;18.726;2023-09-12T13:12:43;100344.55;;;40.36;24.51
51147;BME280;37207;53.060;18.726;2023-09-12T13:15:13;100343.44;;;40.27;24.04
51147;BME280;37207;53.060;18.726;2023-09-12T13:17:44;100341.45;;;40.08;24.10
51147;BME280;37207;53.060;18.726;2023-09-12T13:20:11;100341.13;;;39.92;24.24
51147;BME280;37207;53.060;18.726;2023-09-12T13:22:38;100339.14;;;39.74;24.57
51147;BME280;37207;53.060;18.726;2023-09-12T13:25:06;100338.04;;;39.69;24.81
51147;BME280;37207;53.060;18.726;2023-09-12T13:27:32;100342.39;;;39.58;24.83
51147;BME280;37207;53.060;18.726;2023-09-12T13:29:59;100343.27;;;39.31;24.72
51147;BME280;37207;53.060;18.726;2023-09-12T13:32:26;100341.39;;;39.04;24.92
51147;BME280;37207;53.060;18.726;2023-09-12T13:34:53;100340.23;;;38.79;25.20
51147;BME280;37207;53.060;18.726;2023-09-12T13:37:19;100335.90;;;38.56;25.44
51147;BME280;37207;53.060;18.726;2023-09-12T13:39:47;100333.13;;;38.32;25.15
51147;BME280;37207;53.060;18.726;2023-09-12T13:42:16;100330.31;;;38.07;25.28
51147;BME280;37207;53.060;18.726;2023-09-12T13:44:47;100329.46;;;37.87;25.67
51147;BME280;37207;53.060;18.726;2023-09-12T13:47:14;100327.56;;;37.59;25.92
51147;BME280;37207;53.060;18.726;2023-09-12T13:49:48;100324.16;;;37.25;25.70
51147;BME280;37207;53.060;18.726;2023-09-12T13:52:15;100323.16;;;36.91;25.71
51147;BME280;37207;53.060;18.726;2023-09-12T13:54:41;100319.18;;;36.59;26.03
51147;BME280;37207;53.060;18.726;2023-09-12T13:57:08;100319.42;;;36.36;26.07
51147;BME280;37207;53.060;18.726;2023-09-12T13:59:35;100312.99;;;36.07;26.58
51147;BME280;37207;53.060;18.726;2023-09-12T14:02:01;100314.45;;;35.69;26.78
51147;BME280;37207;53.060;18.726;2023-09-12T14:04:28;100316.95;;;35.38;26.99
51147;BME280;37207;53.060;18.726;2023-09-12T14:06:54;100315.96;;;35.26;27.56
51147;BME280;37207;53.060;18.726;2023-09-12T14:09:21;100318.08;;;35.11;27.65
51147;BME280;37207;53.060;18.726;2023-09-12T14:11:48;100317.52;;;34.90;28.14
51147;BME280;37207;53.060;18.726;2023-09-12T14:14:14;100316.80;;;34.77;28.35
51147;BME280;37207;53.060;18.726;2023-09-12T14:16:44;100316.70;;;34.66;28.40
51147;BME280;37207;53.060;18.726;2023-09-12T14:19:11;100316.66;;;34.57;28.41
51147;BME280;37207;53.060;18.726;2023-09-12T14:21:38;100316.32;;;34.39;28.63
51147;BME280;37207;53.060;18.726;2023-09-12T14:24:05;100317.52;;;34.29;28.70
51147;BME280;37207;53.060;18.726;2023-09-12T14:26:32;100311.64;;;34.21;28.96
51147;BME280;37207;53.060;18.726;2023-09-12T14:28:58;100313.23;;;34.13;28.98